sensor_id;sensor_type;location;lat;lon;timestamp;P1;durP1;ratioP1;P2;durP2;ratioP2
54849;SDS011;47660;51.334;12.396;2023-09-19T00:02:16;1.67;;;1.20;;
54849;SDS011;47660;51.334;12.396;2023-09-19T00:04:41;2.25;;;1.40;;
54849;SDS011;47660;51.334;12.396;2023-09-19T00:07:08;1.98;;;1.30;;
54849;SDS011;47660;51.334;12.396;2023-09-19T00:09:34;2.55;;;1.00;;
54849;SDS011;47660;51.334;12.396;2023-09-19T00:12:03;2.00;;;1.02;;
54849;SDS011;47660;51.334;12.396;2023-09-19T00:14:30;1.60;;;1.00;;
54849;SDS011;47660;51.334;12.396;2023-09-19T00:16:59;1.42;;;1.00;;
54849;SDS011;47660;51.334;12.396;2023-09-19T00:19:25;1.10;;;1.00;;
54849;SDS011;47660;51.334;12.396;2023-09-19T00:21:51;1.15;;;0.98;;
54849;SDS011;47660;51.334;12.396;2023-09-19T00:24:18;1.38;;;1.00;;
54849;SDS011;47660;51.334;12.396;2023-09-19T00:26:43;2.00;;;1.13;;
54849;SDS011;47660;51.334;12.396;2023-09-19T00:29:08;1.20;;;0.90;;
54849;SDS011;47660;51.334;12.396;2023-09-19T00:31:34;2.03;;;1.10;;
54849;SDS011;47660;51.334;12.396;2023-09-19T00:34:02;1.73;;;1.10;;
54849;SDS011;47660;51.334;12.396;2023-09-19T00:36:35;1.48;;;1.10;;
54849;SDS011;47660;51.334;12.396;2023-09-19T00:39:00;1.15;;;1.05;;
54849;SDS011;47660;51.334;12.396;2023-09-19T00:41:26;1.23;;;1.00;;
54849;SDS011;47660;51.334;12.396;2023-09-19T00:43:52;1.30;;;1.10;;
54849;SDS011;47660;51.334;12.396;2023-09-19T00:46:17;1.13;;;1.00;;
54849;SDS011;47660;51.334;12.396;2023-09-19T00:48:42;1.00;;;0.90;;
54849;SDS011;47660;51.334;12.396;2023-09-19T00:51:08;1.08;;;0.98;;
54849;SDS011;47660;51.334;12.396;2023-09-19T00:53:34;1.60;;;1.10;;
54849;SDS011;47660;51.334;12.396;2023-09-19T00:55:59;1.92;;;1.20;;
54849;SDS011;47660;51.334;12.396;2023-09-19T00:58:25;1.30;;;1.00;;
54849;SDS011;47660;51.334;12.396;2023-09-19T01:00:50;2.33;;;0.90;;
54849;SDS011;47660;51.334;12.396;2023-09-19T01:03:16;1.75;;;1.10;;
54849;SDS011;47660;51.334;12.396;2023-09-19T01:05:43;1.50;;;1.00;;
54849;SDS011;47660;51.334;12.396;2023-09-19T01:08:08;1.63;;;0.88;;
54849;SDS011;47660;51.334;12.396;2023-09-19T01:10:36;1.52;;;1.30;;
54849;SDS011;47660;51.334;12.396;2023-09-19T01:16:28;4.07;;;1.30;;
54849;SDS011;47660;51.334;12.396;2023-09-19T01:19:01;0.95;;;0.85;;
54849;SDS011;47660;51.334;12.396;2023-09-19T01:21:48;1.05;;;0.82;;
54849;SDS011;47660;51.334;12.396;2023-09-19T01:24:45;1.58;;;0.93;;
54849;SDS011;47660;51.334;12.396;2023-09-19T01:30:22;1.23;;;1.08;;
54849;SDS011;47660;51.334;12.396;2023-09-19T01:32:52;1.90;;;1.10;;
54849;SDS011;47660;51.334;12.396;2023-09-19T01:35:18;2.97;;;1.15;;
54849;SDS011;47660;51.334;12.396;2023-09-19T01:37:44;1.35;;;0.90;;
54849;SDS011;47660;51.334;12.396;2023-09-19T01:40:11;1.92;;;1.13;;
54849;SDS011;47660;51.334;12.396;2023-09-19T01:42:48;1.30;;;0.80;;
54849;SDS011;47660;51.334;12.396;2023-09-19T01:45:33;1.58;;;1.10;;
54849;SDS011;47660;51.334;12.396;2023-09-19T01:50:58;1.27;;;1.05;;
54849;SDS011;47660;51.334;12.396;2023-09-19T01:53:30;1.53;;;1.20;;
54849;SDS011;47660;51.334;12.396;2023-09-19T01:56:00;1.75;;;0.95;;
54849;SDS011;47660;51.334;12.396;2023-09-19T01:58:28;1.33;;;1.10;;
54849;SDS011;47660;51.334;12.396;2023-09-19T02:01:00;1.38;;;0.90;;
54849;SDS011;47660;51.334;12.396;2023-09-19T02:03:26;1.17;;;0.90;;
54849;SDS011;47660;51.334;12.396;2023-09-19T02:05:54;2.38;;;0.80;;
54849;SDS011;47660;51.334;12.396;2023-09-19T02:08:20;1.67;;;1.00;;
54849;SDS011;47660;51.334;12.396;2023-09-19T02:10:48;1.60;;;1.00;;
54849;SDS011;47660;51.334;12.396;2023-09-19T02:13:17;1.13;;;1.02;;
54849;SDS011;47660;51.334;12.396;2023-09-19T02:15:44;1.00;;;0.90;;
54849;SDS011;47660;51.334;12.396;2023-09-19T02:18:09;3.10;;;1.00;;
54849;SDS011;47660;51.334;12.396;2023-09-19T02:20:36;1.73;;;1.10;;
54849;SDS011;47660;51.334;12.396;2023-09-19T02:23:02;1.83;;;0.98;;
54849;SDS011;47660;51.334;12.396;2023-09-19T02:25:27;1.05;;;0.90;;
54849;SDS011;47660;51.334;12.396;2023-09-19T02:27:53;1.30;;;1.20;;
54849;SDS011;47660;51.334;12.396;2023-09-19T02:30:19;1.10;;;0.90;;
54849;SDS011;47660;51.334;12.396;2023-09-19T02:32:46;1.80;;;1.10;;
54849;SDS011;47660;51.334;12.396;2023-09-19T02:35:11;1.40;;;0.93;;
54849;SDS011;47660;51.334;12.396;2023-09-19T02:37:37;0.95;;;0.88;;
54849;SDS011;47660;51.334;12.396;2023-09-19T02:40:02;1.10;;;0.90;;
54849;SDS011;47660;51.334;12.396;2023-09-19T02:42:31;0.80;;;0.68;;
54849;SDS011;47660;51.334;12.396;2023-09-19T02:44:56;1.20;;;1.00;;
54849;SDS011;47660;51.334;12.396;2023-09-19T02:47:22;1.00;;;0.95;;
54849;SDS011;47660;51.334;12.396;2023-09-19T02:49:47;1.30;;;0.88;;
54849;SDS011;47660;51.334;12.396;2023-09-19T02:52:13;1.00;;;0.90;;
54849;SDS011;47660;51.334;12.396;2023-09-19T02:54:39;1.40;;;0.95;;
54849;SDS011;47660;51.334;12.396;2023-09-19T02:57:05;1.00;;;0.90;;
54849;SDS011;47660;51.334;12.396;2023-09-19T02:59:31;1.27;;;0.88;;
54849;SDS011;47660;51.334;12.396;2023-09-19T03:01:57;0.98;;;0.88;;
54849;SDS011;47660;51.334;12.396;2023-09-19T03:04:22;1.20;;;0.98;;
54849;SDS011;47660;51.334;12.396;2023-09-19T03:06:48;1.10;;;0.85;;
54849;SDS011;47660;51.334;12.396;2023-09-19T03:09:16;1.10;;;1.00;;
54849;SDS011;47660;51.334;12.396;2023-09-19T03:11:41;1.48;;;1.00;;
54849;SDS011;47660;51.334;12.396;2023-09-19T03:14:07;1.33;;;1.13;;
54849;SDS011;47660;51.334;12.396;2023-09-19T03:16:34;0.88;;;0.82;;
54849;SDS011;47660;51.334;12.396;2023-09-19T03:19:02;1.48;;;0.80;;
54849;SDS011;47660;51.334;12.396;2023-09-19T03:21:27;1.23;;;1.13;;
54849;SDS011;47660;51.334;12.396;2023-09-19T03:23:54;1.00;;;0.90;;
54849;SDS011;47660;51.334;12.396;2023-09-19T03:26:19;1.10;;;1.00;;
54849;SDS011;47660;51.334;12.396;2023-09-19T03:28:45;1.38;;;1.10;;
54849;SDS011;47660;51.334;12.396;2023-09-19T03:31:12;1.55;;;0.90;;
54849;SDS011;47660;51.334;12.396;2023-09-19T03:33:37;1.02;;;0.80;;
54849;SDS011;47660;51.334;12.396;2023-09-19T03:36:02;0.75;;;0.73;;
54849;SDS011;47660;51.334;12.396;2023-09-19T03:38:29;0.90;;;0.80;;
54849;SDS011;47660;51.334;12.396;2023-09-19T03:40:55;1.45;;;0.70;;
54849;SDS011;47660;51.334;12.396;2023-09-19T03:43:21;1.02;;;0.82;;
54849;SDS011;47660;51.334;12.396;2023-09-19T03:45:46;0.83;;;0.80;;
54849;SDS011;47660;51.334;12.396;2023-09-19T03:48:11;1.15;;;1.00;;
54849;SDS011;47660;51.334;12.396;2023-09-19T03:50:37;1.00;;;0.80;;
54849;SDS011;47660;51.334;12.396;2023-09-19T03:53:02;1.30;;;0.88;;
54849;SDS011;47660;51.334;12.396;2023-09-19T03:55:28;1.40;;;0.90;;
54849;SDS011;47660;51.334;12.396;2023-09-19T03:57:55;1.63;;;0.90;;
54849;SDS011;47660;51.334;12.396;2023-09-19T04:00:20;1.25;;;0.95;;
54849;SDS011;47660;51.334;12.396;2023-09-19T04:02:48;1.02;;;0.70;;
54849;SDS011;47660;51.334;12.396;2023-09-19T04:05:13;1.75;;;0.68;;
54849;SDS011;47660;51.334;12.396;2023-09-19T04:07:39;1.75;;;0.80;;
54849;SDS011;47660;51.334;12.396;2023-09-19T04:10:04;1.13;;;1.02;;
54849;SDS011;47660;51.334;12.396;2023-09-19T04:12:31;1.15;;;0.70;;
54849;SDS011;47660;51.334;12.396;2023-09-19T04:14:57;1.13;;;0.80;;
54849;SDS011;47660;51.334;12.396;2023-09-19T04:17:22;0.80;;;0.80;;
54849;SDS011;47660;51.334;12.396;2023-09-19T04:19:48;0.80;;;0.80;;
54849;SDS011;47660;51.334;12.396;2023-09-19T04:22:13;0.77;;;0.68;;
54849;SDS011;47660;51.334;12.396;2023-09-19T04:24:38;0.80;;;0.70;;
54849;SDS011;47660;51.334;12.396;2023-09-19T04:27:04;1.65;;;0.90;;
54849;SDS011;47660;51.334;12.396;2023-09-19T04:29:30;0.90;;;0.80;;
54849;SDS011;47660;51.334;12.396;2023-09-19T04:31:55;0.98;;;0.80;;
54849;SDS011;47660;51.334;12.396;2023-09-19T04:34:24;1.27;;;0.95;;
54849;SDS011;47660;51.334;12.396;2023-09-19T04:36:50;1.52;;;1.08;;
54849;SDS011;47660;51.334;12.396;2023-09-19T04:39:15;1.10;;;1.00;;
54849;SDS011;47660;51.334;12.396;2023-09-19T04:41:41;1.00;;;0.88;;
54849;SDS011;47660;51.334;12.396;2023-09-19T04:44:07;1.15;;;0.90;;
54849;SDS011;47660;51.334;12.396;2023-09-19T04:46:33;1.27;;;0.95;;
54849;SDS011;47660;51.334;12.396;2023-09-19T04:48:58;0.82;;;0.73;;
54849;SDS011;47660;51.334;12.396;2023-09-19T04:51:24;0.70;;;0.70;;
54849;SDS011;47660;51.334;12.396;2023-09-19T04:53:50;1.23;;;0.80;;
54849;SDS011;47660;51.334;12.396;2023-09-19T04:56:15;1.42;;;0.85;;
54849;SDS011;47660;51.334;12.396;2023-09-19T04:58:41;1.08;;;0.80;;
54849;SDS011;47660;51.334;12.396;2023-09-19T05:01:06;0.90;;;0.60;;
54849;SDS011;47660;51.334;12.396;2023-09-19T05:03:36;0.75;;;0.70;;
54849;SDS011;47660;51.334;12.396;2023-09-19T05:06:01;0.85;;;0.75;;
54849;SDS011;47660;51.334;12.396;2023-09-19T05:08:27;0.90;;;0.80;;
54849;SDS011;47660;51.334;12.396;2023-09-19T05:10:53;0.80;;;0.80;;
54849;SDS011;47660;51.334;12.396;2023-09-19T05:13:18;1.70;;;0.90;;
54849;SDS011;47660;51.334;12.396;2023-09-19T05:15:43;0.90;;;0.77;;
54849;SDS011;47660;51.334;12.396;2023-09-19T05:18:08;0.80;;;0.80;;
54849;SDS011;47660;51.334;12.396;2023-09-19T05:20:35;1.75;;;1.30;;
54849;SDS011;47660;51.334;12.396;2023-09-19T05:23:03;3.85;;;1.17;;
54849;SDS011;47660;51.334;12.396;2023-09-19T05:25:36;2.63;;;0.80;;
54849;SDS011;47660;51.334;12.396;2023-09-19T05:28:04;5.38;;;0.90;;
54849;SDS011;47660;51.334;12.396;2023-09-19T05:30:31;2.30;;;0.90;;
54849;SDS011;47660;51.334;12.396;2023-09-19T05:32:56;1.13;;;0.70;;
54849;SDS011;47660;51.334;12.396;2023-09-19T05:35:23;3.53;;;0.70;;
54849;SDS011;47660;51.334;12.396;2023-09-19T05:37:50;2.47;;;0.80;;
54849;SDS011;47660;51.334;12.396;2023-09-19T05:40:17;4.38;;;1.10;;
54849;SDS011;47660;51.334;12.396;2023-09-19T05:42:42;4.30;;;0.85;;
54849;SDS011;47660;51.334;12.396;2023-09-19T05:45:09;1.13;;;0.65;;
54849;SDS011;47660;51.334;12.396;2023-09-19T05:47:37;1.92;;;1.23;;
54849;SDS011;47660;51.334;12.396;2023-09-19T05:50:02;3.58;;;1.00;;
54849;SDS011;47660;51.334;12.396;2023-09-19T05:52:28;4.45;;;0.82;;
54849;SDS011;47660;51.334;12.396;2023-09-19T05:54:53;1.40;;;1.05;;
54849;SDS011;47660;51.334;12.396;2023-09-19T05:57:19;3.83;;;1.00;;
54849;SDS011;47660;51.334;12.396;2023-09-19T05:59:44;2.15;;;0.90;;
54849;SDS011;47660;51.334;12.396;2023-09-19T06:02:10;2.45;;;0.93;;
54849;SDS011;47660;51.334;12.396;2023-09-19T06:04:37;1.63;;;0.73;;
54849;SDS011;47660;51.334;12.396;2023-09-19T06:07:05;1.00;;;0.90;;
54849;SDS011;47660;51.334;12.396;2023-09-19T06:09:30;3.70;;;0.87;;
54849;SDS011;47660;51.334;12.396;2023-09-19T06:11:57;2.03;;;0.85;;
54849;SDS011;47660;51.334;12.396;2023-09-19T06:14:22;1.75;;;0.73;;
54849;SDS011;47660;51.334;12.396;2023-09-19T06:16:49;1.60;;;0.90;;
54849;SDS011;47660;51.334;12.396;2023-09-19T06:19:15;1.15;;;0.98;;
54849;SDS011;47660;51.334;12.396;2023-09-19T06:21:40;3.25;;;0.75;;
54849;SDS011;47660;51.334;12.396;2023-09-19T06:24:06;1.35;;;0.73;;
54849;SDS011;47660;51.334;12.396;2023-09-19T06:26:31;2.45;;;0.82;;
54849;SDS011;47660;51.334;12.396;2023-09-19T06:28:57;1.38;;;0.90;;
54849;SDS011;47660;51.334;12.396;2023-09-19T06:31:22;1.55;;;0.73;;
54849;SDS011;47660;51.334;12.396;2023-09-19T06:33:51;2.97;;;0.80;;
54849;SDS011;47660;51.334;12.396;2023-09-19T06:36:17;2.50;;;0.82;;
54849;SDS011;47660;51.334;12.396;2023-09-19T06:38:42;2.05;;;0.95;;
54849;SDS011;47660;51.334;12.396;2023-09-19T06:41:07;1.13;;;0.80;;
54849;SDS011;47660;51.334;12.396;2023-09-19T06:52:28;3.35;;;1.00;;
54849;SDS011;47660;51.334;12.396;2023-09-19T06:54:54;1.13;;;0.90;;
54849;SDS011;47660;51.334;12.396;2023-09-19T06:57:19;1.47;;;0.90;;
54849;SDS011;47660;51.334;12.396;2023-09-19T06:59:45;1.95;;;1.08;;
54849;SDS011;47660;51.334;12.396;2023-09-19T07:02:10;1.42;;;1.00;;
54849;SDS011;47660;51.334;12.396;2023-09-19T07:04:35;0.70;;;0.65;;
54849;SDS011;47660;51.334;12.396;2023-09-19T07:07:01;2.07;;;1.57;;
54849;SDS011;47660;51.334;12.396;2023-09-19T07:09:26;3.83;;;1.08;;
54849;SDS011;47660;51.334;12.396;2023-09-19T07:11:52;1.63;;;0.88;;
54849;SDS011;47660;51.334;12.396;2023-09-19T07:14:18;1.00;;;0.70;;
54849;SDS011;47660;51.334;12.396;2023-09-19T07:16:44;1.00;;;0.68;;
54849;SDS011;47660;51.334;12.396;2023-09-19T07:19:10;2.35;;;0.90;;
54849;SDS011;47660;51.334;12.396;2023-09-19T07:21:36;2.58;;;1.00;;
54849;SDS011;47660;51.334;12.396;2023-09-19T07:24:03;1.20;;;0.77;;
54849;SDS011;47660;51.334;12.396;2023-09-19T07:26:28;1.10;;;0.80;;
54849;SDS011;47660;51.334;12.396;2023-09-19T07:28:54;0.73;;;0.70;;
54849;SDS011;47660;51.334;12.396;2023-09-19T07:31:19;1.10;;;0.80;;
54849;SDS011;47660;51.334;12.396;2023-09-19T07:33:45;3.72;;;0.90;;
54849;SDS011;47660;51.334;12.396;2023-09-19T07:36:10;1.42;;;0.70;;
54849;SDS011;47660;51.334;12.396;2023-09-19T07:38:38;1.63;;;0.80;;
54849;SDS011;47660;51.334;12.396;2023-09-19T07:41:04;1.02;;;0.80;;
54849;SDS011;47660;51.334;12.396;2023-09-19T07:43:30;4.13;;;1.13;;
54849;SDS011;47660;51.334;12.396;2023-09-19T07:45:56;4.18;;;0.90;;
54849;SDS011;47660;51.334;12.396;2023-09-19T07:48:21;0.95;;;0.68;;
54849;SDS011;47660;51.334;12.396;2023-09-19T07:50:48;1.02;;;0.60;;
54849;SDS011;47660;51.334;12.396;2023-09-19T07:53:13;2.00;;;0.60;;
54849;SDS011;47660;51.334;12.396;2023-09-19T07:55:40;1.05;;;0.80;;
54849;SDS011;47660;51.334;12.396;2023-09-19T07:58:06;1.63;;;0.70;;
54849;SDS011;47660;51.334;12.396;2023-09-19T08:00:32;1.60;;;0.75;;
54849;SDS011;47660;51.334;12.396;2023-09-19T08:02:59;3.53;;;0.70;;
54849;SDS011;47660;51.334;12.396;2023-09-19T08:05:25;2.42;;;0.60;;
54849;SDS011;47660;51.334;12.396;2023-09-19T08:07:51;1.10;;;0.50;;
54849;SDS011;47660;51.334;12.396;2023-09-19T08:10:17;1.15;;;0.70;;
54849;SDS011;47660;51.334;12.396;2023-09-19T08:12:44;2.95;;;0.90;;
54849;SDS011;47660;51.334;12.396;2023-09-19T08:15:15;2.33;;;0.70;;
54849;SDS011;47660;51.334;12.396;2023-09-19T08:17:40;1.52;;;0.70;;
54849;SDS011;47660;51.334;12.396;2023-09-19T08:20:06;2.75;;;1.17;;
54849;SDS011;47660;51.334;12.396;2023-09-19T08:22:32;2.85;;;0.80;;
54849;SDS011;47660;51.334;12.396;2023-09-19T08:24:58;0.95;;;0.50;;
54849;SDS011;47660;51.334;12.396;2023-09-19T08:27:24;1.33;;;0.73;;
54849;SDS011;47660;51.334;12.396;2023-09-19T08:29:52;2.40;;;0.70;;
54849;SDS011;47660;51.334;12.396;2023-09-19T08:32:18;1.90;;;0.50;;
54849;SDS011;47660;51.334;12.396;2023-09-19T08:34:48;3.47;;;0.70;;
54849;SDS011;47660;51.334;12.396;2023-09-19T08:37:14;4.00;;;0.80;;
54849;SDS011;47660;51.334;12.396;2023-09-19T08:39:39;0.95;;;0.55;;
54849;SDS011;47660;51.334;12.396;2023-09-19T08:42:04;2.75;;;0.85;;
54849;SDS011;47660;51.334;12.396;2023-09-19T08:44:30;2.20;;;0.73;;
54849;SDS011;47660;51.334;12.396;2023-09-19T08:47:06;3.45;;;0.70;;
54849;SDS011;47660;51.334;12.396;2023-09-19T08:52:40;1.13;;;0.73;;
54849;SDS011;47660;51.334;12.396;2023-09-19T08:55:07;2.05;;;0.93;;
54849;SDS011;47660;51.334;12.396;2023-09-19T08:57:37;2.00;;;0.75;;
54849;SDS011;47660;51.334;12.396;2023-09-19T09:00:06;2.85;;;0.88;;
54849;SDS011;47660;51.334;12.396;2023-09-19T09:02:37;1.05;;;0.77;;
54849;SDS011;47660;51.334;12.396;2023-09-19T09:05:06;3.40;;;0.90;;
54849;SDS011;47660;51.334;12.396;2023-09-19T09:07:34;1.25;;;0.77;;
54849;SDS011;47660;51.334;12.396;2023-09-19T09:10:02;4.43;;;0.60;;
54849;SDS011;47660;51.334;12.396;2023-09-19T09:12:28;1.58;;;0.73;;
54849;SDS011;47660;51.334;12.396;2023-09-19T09:14:55;1.55;;;0.70;;
54849;SDS011;47660;51.334;12.396;2023-09-19T09:17:22;2.70;;;0.68;;
54849;SDS011;47660;51.334;12.396;2023-09-19T09:19:48;1.58;;;0.65;;
54849;SDS011;47660;51.334;12.396;2023-09-19T09:22:13;1.75;;;0.60;;
54849;SDS011;47660;51.334;12.396;2023-09-19T09:24:51;2.70;;;1.02;;
54849;SDS011;47660;51.334;12.396;2023-09-19T09:27:23;2.33;;;0.60;;
54849;SDS011;47660;51.334;12.396;2023-09-19T09:29:49;2.35;;;0.70;;
54849;SDS011;47660;51.334;12.396;2023-09-19T09:32:16;2.17;;;0.90;;
54849;SDS011;47660;51.334;12.396;2023-09-19T09:34:49;3.30;;;0.70;;
54849;SDS011;47660;51.334;12.396;2023-09-19T09:37:16;5.45;;;1.13;;
54849;SDS011;47660;51.334;12.396;2023-09-19T09:39:51;1.75;;;0.90;;
54849;SDS011;47660;51.334;12.396;2023-09-19T09:42:31;2.13;;;0.70;;
54849;SDS011;47660;51.334;12.396;2023-09-19T09:45:17;2.70;;;1.23;;
54849;SDS011;47660;51.334;12.396;2023-09-19T09:47:59;2.53;;;0.82;;
54849;SDS011;47660;51.334;12.396;2023-09-19T09:50:29;2.47;;;0.75;;
54849;SDS011;47660;51.334;12.396;2023-09-19T09:53:24;1.73;;;0.65;;
54849;SDS011;47660;51.334;12.396;2023-09-19T09:55:58;2.72;;;0.73;;
54849;SDS011;47660;51.334;12.396;2023-09-19T09:58:34;2.35;;;0.93;;
54849;SDS011;47660;51.334;12.396;2023-09-19T10:01:02;0.95;;;0.55;;
54849;SDS011;47660;51.334;12.396;2023-09-19T10:03:34;0.95;;;0.60;;
54849;SDS011;47660;51.334;12.396;2023-09-19T10:06:06;1.77;;;0.90;;
54849;SDS011;47660;51.334;12.396;2023-09-19T10:09:06;2.38;;;0.70;;
54849;SDS011;47660;51.334;12.396;2023-09-19T10:11:35;0.90;;;0.70;;
54849;SDS011;47660;51.334;12.396;2023-09-19T10:14:09;2.25;;;0.70;;
54849;SDS011;47660;51.334;12.396;2023-09-19T10:16:36;3.60;;;1.08;;
54849;SDS011;47660;51.334;12.396;2023-09-19T10:19:06;1.98;;;0.90;;
54849;SDS011;47660;51.334;12.396;2023-09-19T10:21:34;3.08;;;1.00;;
54849;SDS011;47660;51.334;12.396;2023-09-19T10:24:01;2.33;;;1.00;;
54849;SDS011;47660;51.334;12.396;2023-09-19T10:26:29;5.95;;;0.80;;
54849;SDS011;47660;51.334;12.396;2023-09-19T10:28:56;1.80;;;0.90;;
54849;SDS011;47660;51.334;12.396;2023-09-19T10:31:22;2.05;;;0.95;;
54849;SDS011;47660;51.334;12.396;2023-09-19T10:33:50;2.50;;;0.90;;
54849;SDS011;47660;51.334;12.396;2023-09-19T10:36:18;0.98;;;0.70;;
54849;SDS011;47660;51.334;12.396;2023-09-19T10:38:45;3.65;;;1.00;;
54849;SDS011;47660;51.334;12.396;2023-09-19T10:41:11;1.42;;;0.80;;
54849;SDS011;47660;51.334;12.396;2023-09-19T10:43:41;2.35;;;1.00;;
54849;SDS011;47660;51.334;12.396;2023-09-19T10:46:10;2.72;;;1.05;;
54849;SDS011;47660;51.334;12.396;2023-09-19T10:48:37;1.65;;;0.80;;
54849;SDS011;47660;51.334;12.396;2023-09-19T10:51:23;3.03;;;0.90;;
54849;SDS011;47660;51.334;12.396;2023-09-19T10:56:27;1.40;;;0.80;;
54849;SDS011;47660;51.334;12.396;2023-09-19T10:59:09;2.10;;;0.93;;
54849;SDS011;47660;51.334;12.396;2023-09-19T11:01:44;3.03;;;1.00;;
54849;SDS011;47660;51.334;12.396;2023-09-19T11:04:22;3.20;;;0.80;;
54849;SDS011;47660;51.334;12.396;2023-09-19T11:15:00;3.00;;;1.30;;
54849;SDS011;47660;51.334;12.396;2023-09-19T11:17:36;4.47;;;0.90;;
54849;SDS011;47660;51.334;12.396;2023-09-19T11:30:30;1.83;;;0.82;;
54849;SDS011;47660;51.334;12.396;2023-09-19T11:36:04;2.78;;;1.00;;
54849;SDS011;47660;51.334;12.396;2023-09-19T11:43:49;1.52;;;0.90;;
54849;SDS011;47660;51.334;12.396;2023-09-19T11:46:16;0.80;;;0.70;;
54849;SDS011;47660;51.334;12.396;2023-09-19T11:48:46;2.20;;;1.00;;
54849;SDS011;47660;51.334;12.396;2023-09-19T11:51:13;3.67;;;0.90;;
54849;SDS011;47660;51.334;12.396;2023-09-19T11:53:47;1.20;;;0.80;;
54849;SDS011;47660;51.334;12.396;2023-09-19T11:56:14;2.42;;;0.98;;
54849;SDS011;47660;51.334;12.396;2023-09-19T11:58:42;3.72;;;0.85;;
54849;SDS011;47660;51.334;12.396;2023-09-19T12:01:08;2.05;;;0.98;;
54849;SDS011;47660;51.334;12.396;2023-09-19T12:03:46;2.45;;;0.90;;
54849;SDS011;47660;51.334;12.396;2023-09-19T12:06:15;3.47;;;1.00;;
54849;SDS011;47660;51.334;12.396;2023-09-19T12:08:41;1.23;;;0.77;;
54849;SDS011;47660;51.334;12.396;2023-09-19T12:11:11;1.58;;;0.93;;
54849;SDS011;47660;51.334;12.396;2023-09-19T12:13:41;2.35;;;0.80;;
54849;SDS011;47660;51.334;12.396;2023-09-19T12:16:17;3.13;;;0.98;;
54849;SDS011;47660;51.334;12.396;2023-09-19T12:18:46;2.60;;;1.00;;
54849;SDS011;47660;51.334;12.396;2023-09-19T12:21:31;3.88;;;1.13;;
54849;SDS011;47660;51.334;12.396;2023-09-19T12:23:58;2.05;;;0.90;;
54849;SDS011;47660;51.334;12.396;2023-09-19T12:26:42;4.03;;;1.00;;
54849;SDS011;47660;51.334;12.396;2023-09-19T12:29:18;2.53;;;0.80;;
54849;SDS011;47660;51.334;12.396;2023-09-19T12:31:52;1.73;;;0.93;;
54849;SDS011;47660;51.334;12.396;2023-09-19T12:34:23;1.40;;;0.90;;
54849;SDS011;47660;51.334;12.396;2023-09-19T12:39:45;2.92;;;1.10;;
54849;SDS011;47660;51.334;12.396;2023-09-19T12:42:14;3.47;;;1.20;;
54849;SDS011;47660;51.334;12.396;2023-09-19T12:44:44;2.20;;;1.05;;
54849;SDS011;47660;51.334;12.396;2023-09-19T12:47:20;2.40;;;1.10;;
54849;SDS011;47660;51.334;12.396;2023-09-19T12:52:47;2.20;;;0.90;;
54849;SDS011;47660;51.334;12.396;2023-09-19T12:55:24;2.03;;;0.90;;
54849;SDS011;47660;51.334;12.396;2023-09-19T12:58:11;6.05;;;1.13;;
54849;SDS011;47660;51.334;12.396;2023-09-19T13:03:24;2.38;;;1.10;;
54849;SDS011;47660;51.334;12.396;2023-09-19T13:08:20;2.92;;;1.40;;
54849;SDS011;47660;51.334;12.396;2023-09-19T13:13:32;1.80;;;1.20;;
54849;SDS011;47660;51.334;12.396;2023-09-19T13:15:58;2.05;;;1.40;;
54849;SDS011;47660;51.334;12.396;2023-09-19T13:18:24;2.03;;;1.20;;
54849;SDS011;47660;51.334;12.396;2023-09-19T13:21:06;3.25;;;1.20;;
54849;SDS011;47660;51.334;12.396;2023-09-19T13:23:49;2.75;;;1.17;;
54849;SDS011;47660;51.334;12.396;2023-09-19T13:26:19;3.92;;;1.10;;
54849;SDS011;47660;51.334;12.396;2023-09-19T13:28:45;3.60;;;1.05;;
54849;SDS011;47660;51.334;12.396;2023-09-19T13:31:12;2.70;;;1.17;;
54849;SDS011;47660;51.334;12.396;2023-09-19T13:33:45;5.53;;;1.25;;
54849;SDS011;47660;51.334;12.396;2023-09-19T13:36:13;2.55;;;1.00;;
54849;SDS011;47660;51.334;12.396;2023-09-19T13:38:39;2.80;;;1.30;;
54849;SDS011;47660;51.334;12.396;2023-09-19T13:41:07;1.80;;;1.23;;
54849;SDS011;47660;51.334;12.396;2023-09-19T13:43:33;2.28;;;1.17;;
54849;SDS011;47660;51.334;12.396;2023-09-19T13:45:58;2.92;;;1.17;;
54849;SDS011;47660;51.334;12.396;2023-09-19T13:48:24;2.70;;;1.30;;
54849;SDS011;47660;51.334;12.396;2023-09-19T13:50:49;1.95;;;1.13;;
54849;SDS011;47660;51.334;12.396;2023-09-19T13:53:15;2.92;;;1.30;;
54849;SDS011;47660;51.334;12.396;2023-09-19T13:55:41;4.82;;;1.30;;
54849;SDS011;47660;51.334;12.396;2023-09-19T13:58:07;3.13;;;1.23;;
54849;SDS011;47660;51.334;12.396;2023-09-19T14:00:35;3.28;;;1.35;;
54849;SDS011;47660;51.334;12.396;2023-09-19T14:03:01;2.50;;;1.73;;
54849;SDS011;47660;51.334;12.396;2023-09-19T14:05:26;3.50;;;1.60;;
54849;SDS011;47660;51.334;12.396;2023-09-19T14:07:53;3.13;;;1.42;;
54849;SDS011;47660;51.334;12.396;2023-09-19T14:10:21;3.47;;;1.45;;
54849;SDS011;47660;51.334;12.396;2023-09-19T14:12:46;4.82;;;1.40;;
54849;SDS011;47660;51.334;12.396;2023-09-19T14:15:12;4.50;;;1.48;;
54849;SDS011;47660;51.334;12.396;2023-09-19T14:17:38;2.75;;;1.40;;
54849;SDS011;47660;51.334;12.396;2023-09-19T14:20:04;2.40;;;1.30;;
54849;SDS011;47660;51.334;12.396;2023-09-19T14:22:31;4.85;;;1.60;;
54849;SDS011;47660;51.334;12.396;2023-09-19T14:24:58;4.25;;;1.65;;
54849;SDS011;47660;51.334;12.396;2023-09-19T14:27:24;5.90;;;1.60;;
54849;SDS011;47660;51.334;12.396;2023-09-19T14:29:50;2.67;;;1.38;;
54849;SDS011;47660;51.334;12.396;2023-09-19T14:32:15;2.38;;;1.60;;
54849;SDS011;47660;51.334;12.396;2023-09-19T14:34:40;4.85;;;1.60;;
54849;SDS011;47660;51.334;12.396;2023-09-19T14:37:08;3.58;;;1.48;;
54849;SDS011;47660;51.334;12.396;2023-09-19T14:39:33;3.42;;;1.70;;
54849;SDS011;47660;51.334;12.396;2023-09-19T14:41:59;1.67;;;1.20;;
54849;SDS011;47660;51.334;12.396;2023-09-19T14:44:24;2.45;;;1.30;;
54849;SDS011;47660;51.334;12.396;2023-09-19T14:46:50;2.58;;;1.35;;
54849;SDS011;47660;51.334;12.396;2023-09-19T14:49:15;2.92;;;1.48;;
54849;SDS011;47660;51.334;12.396;2023-09-19T14:51:41;2.05;;;1.30;;
54849;SDS011;47660;51.334;12.396;2023-09-19T14:54:09;4.10;;;1.50;;
54849;SDS011;47660;51.334;12.396;2023-09-19T14:56:35;5.50;;;1.65;;
54849;SDS011;47660;51.334;12.396;2023-09-19T14:59:00;4.32;;;1.40;;
54849;SDS011;47660;51.334;12.396;2023-09-19T15:01:26;2.85;;;1.48;;
54849;SDS011;47660;51.334;12.396;2023-09-19T15:03:51;2.65;;;1.45;;
54849;SDS011;47660;51.334;12.396;2023-09-19T15:06:19;2.70;;;1.60;;
54849;SDS011;47660;51.334;12.396;2023-09-19T15:08:45;2.78;;;1.48;;
54849;SDS011;47660;51.334;12.396;2023-09-19T15:11:12;3.95;;;1.67;;
54849;SDS011;47660;51.334;12.396;2023-09-19T15:13:42;3.25;;;1.63;;
54849;SDS011;47660;51.334;12.396;2023-09-19T15:16:09;5.28;;;1.40;;
54849;SDS011;47660;51.334;12.396;2023-09-19T15:18:36;1.77;;;1.20;;
54849;SDS011;47660;51.334;12.396;2023-09-19T15:21:06;3.03;;;1.50;;
54849;SDS011;47660;51.334;12.396;2023-09-19T15:23:33;3.03;;;1.25;;
54849;SDS011;47660;51.334;12.396;2023-09-19T15:25:59;2.60;;;1.40;;
54849;SDS011;47660;51.334;12.396;2023-09-19T15:28:27;3.75;;;1.60;;
54849;SDS011;47660;51.334;12.396;2023-09-19T15:31:06;3.65;;;1.60;;
54849;SDS011;47660;51.334;12.396;2023-09-19T15:33:34;5.45;;;1.95;;
54849;SDS011;47660;51.334;12.396;2023-09-19T15:36:03;4.70;;;1.67;;
54849;SDS011;47660;51.334;12.396;2023-09-19T15:38:55;3.88;;;1.45;;
54849;SDS011;47660;51.334;12.396;2023-09-19T15:41:23;3.17;;;1.60;;
54849;SDS011;47660;51.334;12.396;2023-09-19T15:43:49;3.60;;;1.60;;